Unbenanntes Dokument
Flugplatz Bielefeld Platzwetter

 

Aktuelles Platzwetter am Flugplatz Bielefeld EDLI

22.07.18 ,18:14 Uhr

METAR EDLI 221814Z 34004KT 9999 25/12 Q1015

 

Windwerte

 

Wolkenuntergrenzen

Wind aktuell:340 ° mit 6 kt
Wind 10 min Extrem:
280 ° bis 40 ° mit 1 kt bis 6 kt
Seitenwindkomponente: -2.8 kt
Wolkengrenze 1:
Wolkengrenze 2:
Wolkengrenze 3:

Webcam

Temperatur

       

Sichtweite:

20.000 Meter

25.1 °C
Taupunkt: 12.0 °C
Luftfeuchtigkeit: 44 %

Luftdruck:

QNH: 1015 hPa (29.97 in Hg)
QFE: 998 hPa (29.47 in Hg)

Diese Daten werden automatisch ermittelt bzw. übertragen und sind nicht geprüft. Für die Richtigkeit wird daher keine Gewähr übernommen. Sie ersetzen im übrigen nicht die Flugwetterberatung. Alle Zeitangaben beziehen sich auf UTC. Die Seite wird einmal die Minute aktualisiert! Sollten Sie ein ältere Seite haben, so drücken Sie bitte auf den Reload Button Ihres Browsers!